sensor_id;sensor_type;location;lat;lon;timestamp;pressure;altitude;pressure_sealevel;temperature;humidity
77739;BME280;66904;59.926;30.404;2023-03-03T00:01:47;99895.72;;;26.74;24.89
77739;BME280;66904;59.926;30.404;2023-03-03T00:06:54;99926.41;;;26.86;24.77
77739;BME280;66904;59.926;30.404;2023-03-03T00:11:56;99917.69;;;26.84;25.48
77739;BME280;66904;59.926;30.404;2023-03-03T00:28:40;99902.53;;;26.88;25.72
77739;BME280;66904;59.926;30.404;2023-03-03T00:40:22;99923.50;;;27.16;25.46
77739;BME280;66904;59.926;30.404;2023-03-03T00:45:49;99929.41;;;27.13;25.58
77739;BME280;66904;59.926;30.404;2023-03-03T00:56:22;99934.13;;;27.17;24.76
77739;BME280;66904;59.926;30.404;2023-03-03T01:01:23;99932.22;;;27.18;25.23
77739;BME280;66904;59.926;30.404;2023-03-03T01:06:24;99923.25;;;27.17;24.65
77739;BME280;66904;59.926;30.404;2023-03-03T01:11:55;99930.28;;;27.30;24.74
77739;BME280;66904;59.926;30.404;2023-03-03T01:16:59;99917.72;;;27.12;24.83
77739;BME280;66904;59.926;30.404;2023-03-03T01:22:03;99907.69;;;27.13;25.07
77739;BME280;66904;59.926;30.404;2023-03-03T01:33:12;99926.53;;;27.19;24.80
77739;BME280;66904;59.926;30.404;2023-03-03T01:44:20;99928.28;;;27.26;24.76
77739;BME280;66904;59.926;30.404;2023-03-03T01:49:59;99859.00;;;26.71;24.41
77739;BME280;66904;59.926;30.404;2023-03-03T01:55:33;99929.59;;;27.23;24.96
77739;BME280;66904;59.926;30.404;2023-03-03T02:00:53;99936.50;;;27.14;24.89
77739;BME280;66904;59.926;30.404;2023-03-03T02:06:00;99928.56;;;27.12;24.46
77739;BME280;66904;59.926;30.404;2023-03-03T02:11:39;99921.69;;;27.21;24.46
77739;BME280;66904;59.926;30.404;2023-03-03T02:16:59;99900.84;;;27.10;24.44
77739;BME280;66904;59.926;30.404;2023-03-03T02:22:19;99914.44;;;27.10;24.35
77739;BME280;66904;59.926;30.404;2023-03-03T02:27:21;99927.75;;;27.12;24.11
77739;BME280;66904;59.926;30.404;2023-03-03T02:32:22;99923.13;;;27.12;24.29
77739;BME280;66904;59.926;30.404;2023-03-03T02:37:22;99931.06;;;27.14;24.30
77739;BME280;66904;59.926;30.404;2023-03-03T02:42:44;99930.66;;;27.22;24.34
77739;BME280;66904;59.926;30.404;2023-03-03T02:48:04;99931.28;;;27.12;23.77
77739;BME280;66904;59.926;30.404;2023-03-03T02:53:05;99929.88;;;27.10;24.33
77739;BME280;66904;59.926;30.404;2023-03-03T02:58:23;99927.25;;;27.15;24.67
77739;BME280;66904;59.926;30.404;2023-03-03T03:03:30;99931.22;;;27.36;23.84
77739;BME280;66904;59.926;30.404;2023-03-03T03:08:30;99938.25;;;27.20;24.10
77739;BME280;66904;59.926;30.404;2023-03-03T03:13:34;99931.97;;;27.19;24.75
77739;BME280;66904;59.926;30.404;2023-03-03T03:18:49;99905.94;;;27.07;24.82
77739;BME280;66904;59.926;30.404;2023-03-03T03:23:50;99925.22;;;27.22;24.33
77739;BME280;66904;59.926;30.404;2023-03-03T03:28:51;99927.25;;;27.27;24.53
77739;BME280;66904;59.926;30.404;2023-03-03T03:33:55;99916.59;;;27.25;24.52
77739;BME280;66904;59.926;30.404;2023-03-03T03:38:56;99922.16;;;27.30;24.33
77739;BME280;66904;59.926;30.404;2023-03-03T03:43:56;99921.41;;;27.35;24.13
77739;BME280;66904;59.926;30.404;2023-03-03T03:49:09;99903.75;;;27.20;24.59
77739;BME280;66904;59.926;30.404;2023-03-03T03:54:28;99909.41;;;27.31;24.11
77739;BME280;66904;59.926;30.404;2023-03-03T03:59:28;99924.47;;;27.38;24.42
77739;BME280;66904;59.926;30.404;2023-03-03T04:04:29;99919.63;;;27.40;24.00
77739;BME280;66904;59.926;30.404;2023-03-03T04:09:29;99918.69;;;27.35;24.06
77739;BME280;66904;59.926;30.404;2023-03-03T04:14:30;99911.72;;;27.39;23.64
77739;BME280;66904;59.926;30.404;2023-03-03T04:19:31;99921.50;;;27.40;24.16
77739;BME280;66904;59.926;30.404;2023-03-03T04:24:31;99928.97;;;27.44;24.07
77739;BME280;66904;59.926;30.404;2023-03-03T04:29:34;99930.63;;;27.45;23.17
77739;BME280;66904;59.926;30.404;2023-03-03T04:34:34;99919.38;;;27.42;23.55
77739;BME280;66904;59.926;30.404;2023-03-03T04:39:35;99928.34;;;27.42;23.56
77739;BME280;66904;59.926;30.404;2023-03-03T04:44:35;99936.75;;;27.41;23.66
77739;BME280;66904;59.926;30.404;2023-03-03T04:49:36;99931.78;;;27.38;23.55
77739;BME280;66904;59.926;30.404;2023-03-03T04:54:37;99932.28;;;27.35;22.89
77739;BME280;66904;59.926;30.404;2023-03-03T04:59:38;99935.47;;;27.32;23.27
77739;BME280;66904;59.926;30.404;2023-03-03T05:04:38;99937.84;;;27.28;22.96
77739;BME280;66904;59.926;30.404;2023-03-03T05:09:39;99934.56;;;27.26;23.04
77739;BME280;66904;59.926;30.404;2023-03-03T05:14:39;99944.25;;;27.22;23.05
77739;BME280;66904;59.926;30.404;2023-03-03T05:19:40;99935.19;;;27.16;23.00
77739;BME280;66904;59.926;30.404;2023-03-03T05:24:40;99942.50;;;27.16;22.44
77739;BME280;66904;59.926;30.404;2023-03-03T05:29:42;99941.81;;;27.09;22.39
77739;BME280;66904;59.926;30.404;2023-03-03T05:34:42;99949.13;;;27.08;22.49
77739;BME280;66904;59.926;30.404;2023-03-03T05:39:43;99949.13;;;27.08;22.77
77739;BME280;66904;59.926;30.404;2023-03-03T05:44:43;99952.91;;;27.07;22.68
77739;BME280;66904;59.926;30.404;2023-03-03T05:49:44;99928.88;;;26.88;22.50
77739;BME280;66904;59.926;30.404;2023-03-03T05:54:44;99959.06;;;27.03;22.51
77739;BME280;66904;59.926;30.404;2023-03-03T05:59:45;99961.19;;;27.01;22.56
77739;BME280;66904;59.926;30.404;2023-03-03T06:04:45;99960.38;;;27.00;22.07
77739;BME280;66904;59.926;30.404;2023-03-03T06:09:46;99964.97;;;27.00;22.01
77739;BME280;66904;59.926;30.404;2023-03-03T06:14:46;99972.84;;;27.01;21.97
77739;BME280;66904;59.926;30.404;2023-03-03T06:19:47;99959.53;;;27.00;22.05
77739;BME280;66904;59.926;30.404;2023-03-03T06:24:47;99957.06;;;26.98;22.00
77739;BME280;66904;59.926;30.404;2023-03-03T06:29:48;99964.63;;;26.96;22.34
77739;BME280;66904;59.926;30.404;2023-03-03T06:34:48;99964.84;;;26.95;22.18
77739;BME280;66904;59.926;30.404;2023-03-03T06:39:49;99967.91;;;26.98;22.49
77739;BME280;66904;59.926;30.404;2023-03-03T06:44:51;99971.09;;;26.95;22.06
77739;BME280;66904;59.926;30.404;2023-03-03T06:49:52;99945.31;;;26.81;22.24
77739;BME280;66904;59.926;30.404;2023-03-03T06:54:54;99979.59;;;26.99;22.15
77739;BME280;66904;59.926;30.404;2023-03-03T06:59:59;99969.81;;;26.98;21.35
77739;BME280;66904;59.926;30.404;2023-03-03T07:05:05;99980.69;;;26.98;21.66
77739;BME280;66904;59.926;30.404;2023-03-03T07:10:15;99979.38;;;27.00;21.50
77739;BME280;66904;59.926;30.404;2023-03-03T07:15:23;99989.41;;;27.00;21.30
77739;BME280;66904;59.926;30.404;2023-03-03T07:20:32;99975.56;;;27.01;21.58
77739;BME280;66904;59.926;30.404;2023-03-03T07:25:35;99975.47;;;26.96;21.58
77739;BME280;66904;59.926;30.404;2023-03-03T07:30:37;99975.13;;;26.93;21.45
77739;BME280;66904;59.926;30.404;2023-03-03T07:35:42;99983.19;;;26.88;21.66
77739;BME280;66904;59.926;30.404;2023-03-03T07:41:11;99971.84;;;26.91;22.00
77739;BME280;66904;59.926;30.404;2023-03-03T07:46:38;99971.00;;;26.90;22.23
77739;BME280;66904;59.926;30.404;2023-03-03T07:51:40;99981.16;;;26.83;21.93
77739;BME280;66904;59.926;30.404;2023-03-03T07:56:41;99944.56;;;26.62;22.20
77739;BME280;66904;59.926;30.404;2023-03-03T08:01:45;99987.78;;;26.87;22.17
77739;BME280;66904;59.926;30.404;2023-03-03T08:06:51;99985.53;;;26.84;22.22
77739;BME280;66904;59.926;30.404;2023-03-03T08:12:00;99980.47;;;26.88;22.13
77739;BME280;66904;59.926;30.404;2023-03-03T08:22:36;99970.41;;;26.77;21.96
77739;BME280;66904;59.926;30.404;2023-03-03T08:27:36;99946.69;;;26.60;22.53
77739;BME280;66904;59.926;30.404;2023-03-03T08:32:37;99979.00;;;26.73;21.70
77739;BME280;66904;59.926;30.404;2023-03-03T08:37:37;99978.19;;;26.73;21.96
77739;BME280;66904;59.926;30.404;2023-03-03T08:42:38;99974.63;;;26.72;21.72
77739;BME280;66904;59.926;30.404;2023-03-03T08:47:38;99968.75;;;26.64;22.16
77739;BME280;66904;59.926;30.404;2023-03-03T08:52:39;99988.00;;;26.74;22.27
77739;BME280;66904;59.926;30.404;2023-03-03T08:57:40;99948.78;;;26.58;22.18
77739;BME280;66904;59.926;30.404;2023-03-03T09:02:40;99981.81;;;26.79;21.93
77739;BME280;66904;59.926;30.404;2023-03-03T09:07:42;99977.13;;;26.74;21.84
77739;BME280;66904;59.926;30.404;2023-03-03T09:12:45;99980.34;;;26.83;21.97
77739;BME280;66904;59.926;30.404;2023-03-03T09:17:47;99974.44;;;26.86;22.17
77739;BME280;66904;59.926;30.404;2023-03-03T09:22:49;99983.84;;;26.95;21.83
77739;BME280;66904;59.926;30.404;2023-03-03T09:27:52;99979.59;;;26.99;22.22
77739;BME280;66904;59.926;30.404;2023-03-03T09:32:55;99976.19;;;27.03;22.24
77739;BME280;66904;59.926;30.404;2023-03-03T09:37:57;99971.94;;;27.07;21.99
77739;BME280;66904;59.926;30.404;2023-03-03T09:43:04;99963.44;;;27.04;21.45
77739;BME280;66904;59.926;30.404;2023-03-03T09:58:49;99958.09;;;27.09;21.86
77739;BME280;66904;59.926;30.404;2023-03-03T10:25:52;99949.72;;;27.10;21.38
77739;BME280;66904;59.926;30.404;2023-03-03T10:42:09;99954.19;;;27.16;22.16
77739;BME280;66904;59.926;30.404;2023-03-03T10:51:54;99954.34;;;27.50;21.80
77739;BME280;66904;59.926;30.404;2023-03-03T10:57:22;99957.19;;;27.43;22.69
77739;BME280;66904;59.926;30.404;2023-03-03T11:02:41;99958.47;;;27.52;22.59
77739;BME280;66904;59.926;30.404;2023-03-03T11:07:56;99936.38;;;27.49;22.54
77739;BME280;66904;59.926;30.404;2023-03-03T11:19:00;99945.31;;;27.61;22.67
77739;BME280;66904;59.926;30.404;2023-03-03T11:34:47;99924.72;;;27.65;22.11
77739;BME280;66904;59.926;30.404;2023-03-03T11:39:51;99916.72;;;27.58;22.79
77739;BME280;66904;59.926;30.404;2023-03-03T11:44:59;99926.16;;;27.67;22.23
77739;BME280;66904;59.926;30.404;2023-03-03T11:50:07;99919.63;;;27.68;22.24
77739;BME280;66904;59.926;30.404;2023-03-03T11:55:26;99913.38;;;27.68;21.70
77739;BME280;66904;59.926;30.404;2023-03-03T12:00:32;99899.44;;;27.64;21.87
77739;BME280;66904;59.926;30.404;2023-03-03T12:16:48;99886.25;;;27.56;21.44
77739;BME280;66904;59.926;30.404;2023-03-03T12:27:44;99877.44;;;27.49;21.53
77739;BME280;66904;59.926;30.404;2023-03-03T12:33:19;99885.81;;;27.48;21.14
77739;BME280;66904;59.926;30.404;2023-03-03T12:43:43;99878.19;;;27.33;20.89
77739;BME280;66904;59.926;30.404;2023-03-03T12:48:46;99868.06;;;27.29;21.48
77739;BME280;66904;59.926;30.404;2023-03-03T12:59:03;99836.25;;;27.12;20.86
77739;BME280;66904;59.926;30.404;2023-03-03T13:20:11;99851.41;;;27.25;20.81
77739;BME280;66904;59.926;30.404;2023-03-03T13:25:30;99847.41;;;27.28;21.15
77739;BME280;66904;59.926;30.404;2023-03-03T13:30:37;99845.63;;;27.21;20.61
77739;BME280;66904;59.926;30.404;2023-03-03T13:41:05;99818.75;;;27.20;20.83
77739;BME280;66904;59.926;30.404;2023-03-03T13:52:10;99834.88;;;27.27;20.86
77739;BME280;66904;59.926;30.404;2023-03-03T13:57:35;99820.97;;;27.23;20.68
77739;BME280;66904;59.926;30.404;2023-03-03T14:02:44;99816.41;;;27.12;20.98
77739;BME280;66904;59.926;30.404;2023-03-03T14:13:12;99785.34;;;26.91;21.06
77739;BME280;66904;59.926;30.404;2023-03-03T14:18:23;99821.34;;;27.15;21.18
77739;BME280;66904;59.926;30.404;2023-03-03T14:28:49;99821.53;;;27.25;21.39
77739;BME280;66904;59.926;30.404;2023-03-03T14:44:37;99769.59;;;27.21;21.32
77739;BME280;66904;59.926;30.404;2023-03-03T14:49:48;99794.00;;;27.33;20.86
77739;BME280;66904;59.926;30.404;2023-03-03T14:54:55;99770.41;;;27.22;21.42
77739;BME280;66904;59.926;30.404;2023-03-03T15:00:38;99757.00;;;27.15;21.21
77739;BME280;66904;59.926;30.404;2023-03-03T15:05:25;99770.25;;;27.29;20.74
77739;BME280;66904;59.926;30.404;2023-03-03T15:10:35;99760.94;;;27.24;20.77
77739;BME280;66904;59.926;30.404;2023-03-03T15:15:48;99759.31;;;27.23;20.89
77739;BME280;66904;59.926;30.404;2023-03-03T15:21:30;99744.91;;;27.23;21.09
77739;BME280;66904;59.926;30.404;2023-03-03T15:42:42;99728.13;;;27.26;20.91
77739;BME280;66904;59.926;30.404;2023-03-03T15:47:55;99722.28;;;27.17;20.69
77739;BME280;66904;59.926;30.404;2023-03-03T16:03:39;99708.72;;;27.17;20.76
77739;BME280;66904;59.926;30.404;2023-03-03T16:24:52;99685.34;;;27.16;20.62
77739;BME280;66904;59.926;30.404;2023-03-03T16:35:11;99679.91;;;27.16;20.42
77739;BME280;66904;59.926;30.404;2023-03-03T16:40:26;99673.97;;;27.19;20.49
77739;BME280;66904;59.926;30.404;2023-03-03T16:45:36;99673.75;;;27.21;20.48
77739;BME280;66904;59.926;30.404;2023-03-03T16:56:17;99661.47;;;27.18;20.59
77739;BME280;66904;59.926;30.404;2023-03-03T17:06:54;99608.25;;;27.01;20.04
77739;BME280;66904;59.926;30.404;2023-03-03T17:12:19;99638.44;;;27.21;20.57
77739;BME280;66904;59.926;30.404;2023-03-03T17:44:23;99607.31;;;27.12;20.13
77739;BME280;66904;59.926;30.404;2023-03-03T17:49:39;99605.44;;;27.12;20.47
77739;BME280;66904;59.926;30.404;2023-03-03T18:21:37;99554.97;;;27.16;20.86
77739;BME280;66904;59.926;30.404;2023-03-03T18:26:42;99545.22;;;27.37;20.94
77739;BME280;66904;59.926;30.404;2023-03-03T18:31:48;99540.06;;;27.19;20.99
77739;BME280;66904;59.926;30.404;2023-03-03T18:36:53;99530.22;;;27.13;20.48
77739;BME280;66904;59.926;30.404;2023-03-03T18:42:08;99527.88;;;27.21;20.85
77739;BME280;66904;59.926;30.404;2023-03-03T18:47:10;99523.22;;;27.17;21.19
77739;BME280;66904;59.926;30.404;2023-03-03T18:52:21;99508.88;;;27.21;21.11
77739;BME280;66904;59.926;30.404;2023-03-03T18:57:22;99490.00;;;27.10;20.70
77739;BME280;66904;59.926;30.404;2023-03-03T19:02:37;99489.50;;;27.13;20.97
77739;BME280;66904;59.926;30.404;2023-03-03T19:07:47;99490.97;;;27.20;20.99
77739;BME280;66904;59.926;30.404;2023-03-03T19:17:52;99475.50;;;27.21;21.04
77739;BME280;66904;59.926;30.404;2023-03-03T19:23:04;99470.63;;;27.23;21.27
77739;BME280;66904;59.926;30.404;2023-03-03T19:33:25;99467.72;;;27.30;21.15
77739;BME280;66904;59.926;30.404;2023-03-03T19:55:20;99440.09;;;26.94;20.12
77739;BME280;66904;59.926;30.404;2023-03-03T20:00:28;99421.84;;;26.90;20.34
77739;BME280;66904;59.926;30.404;2023-03-03T20:32:02;99382.88;;;27.22;20.49
77739;BME280;66904;59.926;30.404;2023-03-03T20:37:10;99369.00;;;27.19;20.53
77739;BME280;66904;59.926;30.404;2023-03-03T20:53:31;99346.63;;;27.34;20.70
77739;BME280;66904;59.926;30.404;2023-03-03T20:58:55;99333.59;;;27.36;20.25
77739;BME280;66904;59.926;30.404;2023-03-03T21:09:25;99331.44;;;27.38;20.63
77739;BME280;66904;59.926;30.404;2023-03-03T21:14:30;99315.06;;;27.28;20.06
77739;BME280;66904;59.926;30.404;2023-03-03T21:19:32;99317.06;;;27.37;20.59
77739;BME280;66904;59.926;30.404;2023-03-03T21:24:52;99306.31;;;27.47;20.62
77739;BME280;66904;59.926;30.404;2023-03-03T21:30:11;99292.16;;;27.45;20.57
77739;BME280;66904;59.926;30.404;2023-03-03T21:35:14;99281.78;;;27.42;20.10
77739;BME280;66904;59.926;30.404;2023-03-03T21:40:21;99278.31;;;27.47;20.38
77739;BME280;66904;59.926;30.404;2023-03-03T21:45:25;99278.31;;;27.47;20.80
77739;BME280;66904;59.926;30.404;2023-03-03T21:50:26;99264.22;;;27.50;20.62
77739;BME280;66904;59.926;30.404;2023-03-03T21:55:30;99260.16;;;27.52;20.50
77739;BME280;66904;59.926;30.404;2023-03-03T22:00:30;99258.00;;;27.54;20.63
77739;BME280;66904;59.926;30.404;2023-03-03T22:05:31;99247.94;;;27.55;20.87
77739;BME280;66904;59.926;30.404;2023-03-03T22:10:32;99232.16;;;27.52;20.57
77739;BME280;66904;59.926;30.404;2023-03-03T22:15:32;99227.03;;;27.55;20.96
77739;BME280;66904;59.926;30.404;2023-03-03T22:20:33;99230.34;;;27.57;20.42
77739;BME280;66904;59.926;30.404;2023-03-03T22:25:33;99198.09;;;27.39;20.70
77739;BME280;66904;59.926;30.404;2023-03-03T22:30:34;99222.97;;;27.58;20.35
77739;BME280;66904;59.926;30.404;2023-03-03T22:35:35;99211.31;;;27.57;20.39
77739;BME280;66904;59.926;30.404;2023-03-03T22:40:35;99208.03;;;27.55;20.42
77739;BME280;66904;59.926;30.404;2023-03-03T22:45:36;99204.47;;;27.55;20.92
77739;BME280;66904;59.926;30.404;2023-03-03T22:50:37;99190.59;;;27.51;21.40
77739;BME280;66904;59.926;30.404;2023-03-03T22:55:39;99188.47;;;27.58;21.49
77739;BME280;66904;59.926;30.404;2023-03-03T23:00:40;99185.50;;;27.60;21.71
77739;BME280;66904;59.926;30.404;2023-03-03T23:05:42;99163.72;;;27.55;21.81
77739;BME280;66904;59.926;30.404;2023-03-03T23:10:55;99163.84;;;27.70;22.00
77739;BME280;66904;59.926;30.404;2023-03-03T23:16:42;99156.22;;;27.72;22.42
77739;BME280;66904;59.926;30.404;2023-03-03T23:21:46;99136.84;;;27.58;21.93
77739;BME280;66904;59.926;30.404;2023-03-03T23:26:47;99142.88;;;27.65;21.71
77739;BME280;66904;59.926;30.404;2023-03-03T23:31:50;99135.53;;;27.66;21.84
77739;BME280;66904;59.926;30.404;2023-03-03T23:36:51;99123.84;;;27.65;22.14
77739;BME280;66904;59.926;30.404;2023-03-03T23:42:03;99114.63;;;27.66;21.75
77739;BME280;66904;59.926;30.404;2023-03-03T23:47:23;99109.16;;;27.61;21.73
77739;BME280;66904;59.926;30.404;2023-03-03T23:52:24;99104.00;;;27.60;21.68
77739;BME280;66904;59.926;30.404;2023-03-03T23:57:24;99106.19;;;27.63;21.76
